Matson Consumer — WCHF — position and weather

sailwx.info

Track history (hours):
 
Tides and Currents Weather Stations Pressure Air Temp Water Temp Dewpoint Dewpoint Depression Visibility Wind Speed Wind Dir Waves Ship Positions

Matson Consumer

Owner: MATSON NAVIGATION COMPANY OF ALASKA, INC., Oakland, CA. More information available from US FCC via Universal Licensing System and Coast Guard Vessel Documentation Center.

Last reported at 2016-Nov-25 18:32 UTC. Time now 2016-Dec-05 16:42 UTC.
Position N 47°16' W 122°25'.
Warning: this ship's position is 9 days out of date.

Type: Cargo ship. MMSI: 368600000.

Date/timePositionNaut miles runAvg speedWind from/ knotsBaromVisibWave heightAir tempDewpointWater temp
2016-Nov-25 18:32N 47°16' W 122°25'0 0.0
2016-Nov-25 17:32N 47°16' W 122°25'0 0.0
2016-Nov-25 16:32N 47°16' W 122°25'0 0.0
2016-Nov-25 15:32N 47°16' W 122°25'0 0.0
2016-Nov-25 14:32N 47°16' W 122°25'0 0.0
2016-Nov-25 13:32N 47°16' W 122°25'0 0.0
2016-Nov-25 12:32N 47°16' W 122°25'0 0.0
2016-Nov-25 11:32N 47°16' W 122°25'1 1.0
2016-Nov-25 10:33N 47°17' W 122°26'8 8.0
2016-Nov-25 09:34N 47°24' W 122°23'1818.3
2016-Nov-25 08:34N 47°42' W 122°27'1918.9
2016-Nov-25 07:34N 48°00' W 122°37'1918.6
2016-Nov-25 06:33N 48°12' W 122°60'1817.8
2016-Nov-25 05:33N 48°11' W 123°26'1918.9
2016-Nov-25 04:33N 48°13' W 123°54'2519.7
2016-Nov-25 03:18N 48°24' W 124°28'1419.0
2016-Nov-25 02:33N 48°28' W 124°48'1818.6
2016-Nov-25 01:33N 48°31' W 125°16'1918.5
2016-Nov-25 00:33N 48°40' W 125°40'1527.0
2016-Nov-25 00:00N 48°48' W 126°00'3 6.5 170 / 181006.5 1.1 10.0 3.611.7
2016-Nov-24 23:34N 48°49' W 126°04'1918.8
2016-Nov-24 22:33N 48°58' W 126°29'1918.8
2016-Nov-24 21:33N 49°08' W 126°53'18018.9
2016-Nov-24 12:00N 51°30' W 129°48'20517.1 210 / 281000.6 1.1 7.2-0.010.5
2016-Nov-24 00:00N 54°30' W 132°30'23819.8 140 / 34997.5 0.5 8.9 3.9 7.3
2016-Nov-23 12:00N 55°54' W 139°00'23819.8 160 / 20994.5 0.5 6.7 0.9 8.3
2016-Nov-23 00:00N 57°00' W 145°54'11914.9 110 / 41989.1 0.5 6.1 1.9 6.0
2016-Nov-22 16:00N 57°24' W 149°30'   050 / 45993.0 2.2 6.1 5.0
2016-Nov-19 12:00N 57°12' W 145°00'24920.7 170 / 71014.6 0.3 5.5 1.5 5.0
2016-Nov-19 00:00N 55°00' W 138°42'23421.3 060 / 201015.6 0.3 8.3 3.1 8.7
2016-Nov-18 13:00N 52°36' W 133°30'26120.0 090 / 251017.6 1.1 10.0 6.410.5
2016-Nov-18 00:00N 49°48' W 128°12'7717.5 160 / 61019.6 0.5 10.5 4.511.5
2016-Nov-17 19:34N 49°00' W 126°38'2019.7
2016-Nov-17 18:33N 48°48' W 126°14'7218.1
2016-Nov-17 14:34N 48°27' W 124°30'1918.5
2016-Nov-17 13:33N 48°20' W 124°04'1818.0
2016-Nov-17 12:33N 48°15' W 123°38'1413.7
2016-Nov-17 11:33N 48°09' W 123°20'4314.3
2016-Nov-17 08:34N 47°46' W 122°26'3014.8
2016-Nov-17 06:33N 47°16' W 122°25'0 0.0
2016-Nov-17 02:33N 47°16' W 122°25'0 0.0
2016-Nov-16 23:33N 47°16' W 122°25'0 0.0
2016-Nov-16 22:33N 47°16' W 122°25'0 0.0
2016-Nov-16 20:15N 47°16' W 122°25'0 0.0
2016-Nov-16 19:15N 47°16' W 122°25'0 0.0
2016-Nov-16 18:33N 47°16' W 122°25'0 0.0
2016-Nov-16 17:33N 47°16' W 122°25'0 0.0
2016-Nov-16 16:33N 47°16' W 122°25'0 0.0
2016-Nov-16 12:15N 47°16' W 122°25'0 0.0
2016-Nov-16 09:33N 47°16' W 122°25'0 0.0
2016-Nov-16 08:33N 47°16' W 122°25'0 0.0
2016-Nov-16 07:33N 47°16' W 122°25'0 0.0
2016-Nov-16 06:33N 47°16' W 122°25'0 0.0
2016-Nov-16 04:33N 47°16' W 122°25'0 0.0
2016-Nov-16 02:21N 47°16' W 122°25'0 0.0
2016-Nov-16 01:15N 47°16' W 122°25'9 2.5
2016-Nov-15 21:33N 47°25' W 122°23'3818.9
2016-Nov-15 19:33N 48°02' W 122°39'1817.5
2016-Nov-15 18:33N 48°12' W 123°00'  
Track history (hours):
 
Tides and Currents Weather Stations Pressure Air Temp Water Temp Dewpoint Dewpoint Depression Visibility Wind Speed Wind Dir Waves Ship Positions

Matson Consumer

Owner: MATSON NAVIGATION COMPANY OF ALASKA, INC., Oakland, CA. More information available from US FCC via Universal Licensing System and Coast Guard Vessel Documentation Center.

Last reported at 2016-Nov-25 18:32 UTC. Time now 2016-Dec-05 16:42 UTC.
Position N 47°16' W 122°25'.
Warning: this ship's position is 9 days out of date.

Type: Cargo ship. MMSI: 368600000.

Date/timePositionNaut miles runAvg speedWind from/ knotsBaromVisibWave heightAir tempDewpointWater temp
2016-Nov-25 18:32N 47°16' W 122°25'0 0.0
2016-Nov-25 17:32N 47°16' W 122°25'0 0.0
2016-Nov-25 16:32N 47°16' W 122°25'0 0.0
2016-Nov-25 15:32N 47°16' W 122°25'0 0.0
2016-Nov-25 14:32N 47°16' W 122°25'0 0.0
2016-Nov-25 13:32N 47°16' W 122°25'0 0.0
2016-Nov-25 12:32N 47°16' W 122°25'0 0.0
2016-Nov-25 11:32N 47°16' W 122°25'1 1.0
2016-Nov-25 10:33N 47°17' W 122°26'8 8.0
2016-Nov-25 09:34N 47°24' W 122°23'1818.3
2016-Nov-25 08:34N 47°42' W 122°27'1918.9
2016-Nov-25 07:34N 48°00' W 122°37'1918.6
2016-Nov-25 06:33N 48°12' W 122°60'1817.8
2016-Nov-25 05:33N 48°11' W 123°26'1918.9
2016-Nov-25 04:33N 48°13' W 123°54'2519.7
2016-Nov-25 03:18N 48°24' W 124°28'1419.0
2016-Nov-25 02:33N 48°28' W 124°48'1818.6
2016-Nov-25 01:33N 48°31' W 125°16'1918.5
2016-Nov-25 00:33N 48°40' W 125°40'1527.0
2016-Nov-25 00:00N 48°48' W 126°00'3 6.5 170 / 181006.5 1.1 10.0 3.611.7
2016-Nov-24 23:34N 48°49' W 126°04'1918.8
2016-Nov-24 22:33N 48°58' W 126°29'1918.8
2016-Nov-24 21:33N 49°08' W 126°53'18018.9
2016-Nov-24 12:00N 51°30' W 129°48'20517.1 210 / 281000.6 1.1 7.2-0.010.5
2016-Nov-24 00:00N 54°30' W 132°30'23819.8 140 / 34997.5 0.5 8.9 3.9 7.3
2016-Nov-23 12:00N 55°54' W 139°00'23819.8 160 / 20994.5 0.5 6.7 0.9 8.3
2016-Nov-23 00:00N 57°00' W 145°54'11914.9 110 / 41989.1 0.5 6.1 1.9 6.0
2016-Nov-22 16:00N 57°24' W 149°30'   050 / 45993.0 2.2 6.1 5.0
2016-Nov-19 12:00N 57°12' W 145°00'24920.7 170 / 71014.6 0.3 5.5 1.5 5.0
2016-Nov-19 00:00N 55°00' W 138°42'23421.3 060 / 201015.6 0.3 8.3 3.1 8.7
2016-Nov-18 13:00N 52°36' W 133°30'26120.0 090 / 251017.6 1.1 10.0 6.410.5
2016-Nov-18 00:00N 49°48' W 128°12'7717.5 160 / 61019.6 0.5 10.5 4.511.5
2016-Nov-17 19:34N 49°00' W 126°38'2019.7
2016-Nov-17 18:33N 48°48' W 126°14'7218.1
2016-Nov-17 14:34N 48°27' W 124°30'1918.5
2016-Nov-17 13:33N 48°20' W 124°04'1818.0
2016-Nov-17 12:33N 48°15' W 123°38'1413.7
2016-Nov-17 11:33N 48°09' W 123°20'4314.3
2016-Nov-17 08:34N 47°46' W 122°26'3014.8
2016-Nov-17 06:33N 47°16' W 122°25'0 0.0
2016-Nov-17 02:33N 47°16' W 122°25'0 0.0
2016-Nov-16 23:33N 47°16' W 122°25'0 0.0
2016-Nov-16 22:33N 47°16' W 122°25'0 0.0
2016-Nov-16 20:15N 47°16' W 122°25'0 0.0
2016-Nov-16 19:15N 47°16' W 122°25'0 0.0
2016-Nov-16 18:33N 47°16' W 122°25'0 0.0
2016-Nov-16 17:33N 47°16' W 122°25'0 0.0
2016-Nov-16 16:33N 47°16' W 122°25'0 0.0
2016-Nov-16 12:15N 47°16' W 122°25'0 0.0
2016-Nov-16 09:33N 47°16' W 122°25'0 0.0
2016-Nov-16 08:33N 47°16' W 122°25'0 0.0
2016-Nov-16 07:33N 47°16' W 122°25'0 0.0
2016-Nov-16 06:33N 47°16' W 122°25'0 0.0
2016-Nov-16 04:33N 47°16' W 122°25'0 0.0
2016-Nov-16 02:21N 47°16' W 122°25'0 0.0
2016-Nov-16 01:15N 47°16' W 122°25'9 2.5
2016-Nov-15 21:33N 47°25' W 122°23'3818.9
2016-Nov-15 19:33N 48°02' W 122°39'1817.5
2016-Nov-15 18:33N 48°12' W 123°00'  

Dump ship's entire track history